• Join FlightAware (Why Join?)
  • Login
  • US Flag 
03:06AM EST


 

Airport Tracker/Info


-or-


 

Live Flight TrackerFlight Track Log ✈ EJA102 ✈ 26-Jun-2013 ✈ KTTN - KEWB

Flight Track Log - Related Links

Times and Time Zones

All times are in EDT time to prevent confusion due to time zone crossing. See the EJA102 flight status page for this flight to view local times or setup timezone preferences in your user account.

Time Position Orientation Groundspeed Altitude Reporting Facility
EDT Latitude Longitude Course Direction KTS MPH feet Rate Location/Type
07:08AM 40.2667 -74.8167 217° Southwest 139 160 700  Level Philadelphia TRACON
07:10AM 40.2000 -74.8833 217° Southwest 208 239 4,200 2,400 Climbing Philadelphia TRACON
07:11AM 40.1500 -74.8667 166° South 266 306 6,300 1,440 Climbing Philadelphia TRACON
07:12AM 40.0667 -74.8333 163° South 284 327 7,300 1,080 Climbing Philadelphia TRACON
07:13AM 39.9678 -74.7931 163° South 295 339 9,000 1,440 Climbing New York Center
07:14AM 39.8925 -74.7425 153° Southeast 308 354 10,600 1,620 Climbing New York Center
07:15AM 39.8633 -74.6192 107° East 303 349 12,300 1,680 Climbing New York Center
07:16AM 39.8319 -74.4906 108° East 333 383 14,000 1,620 Climbing New York Center
07:17AM 39.8189 -74.3708 98° East 360 414 15,700 1,740 Climbing New York Center
07:18AM 39.8625 -74.2406 66° East 360 414 17,500 1,560 Climbing New York Center
07:19AM 39.9242 -74.1300 54° Northeast 355 409 18,800 720 Climbing New York Center
07:20AM 39.9900 -74.0111 54° Northeast 389 448 19,000 60 Climbing New York Center
07:21AM 40.0556 -73.8950 54° Northeast 424 488 19,000  Level New York Center
07:23AM 40.2272 -73.5869 54° Northeast 435 501 19,000  Level Boston Center
07:24AM 40.2994 -73.4578 54° Northeast 435 501 19,000  Level Boston Center
07:25AM 40.3714 -73.3253 54° Northeast 440 506 19,000  Level Boston Center
07:26AM 40.4453 -73.1900 54° Northeast 447 514 19,000  Level Boston Center
07:27AM 40.5189 -73.0542 54° Northeast 447 514 19,000  Level Boston Center
07:28AM 40.5883 -72.9211 55° Northeast 447 514 19,000  Level Boston Center
07:29AM 40.6408 -72.8119 58° Northeast 447 514 19,000  Level Boston Center
07:30AM 40.7164 -72.6428 59° Northeast 441 507 19,000  Level Boston Center
07:31AM 40.7769 -72.5114 59° Northeast 451 519 19,000 -180 Level Boston Center
07:32AM 40.8436 -72.3714 58° Northeast 451 519 18,700 -1,320 Descending Boston Center
07:33AM 40.9081 -72.2314 59° Northeast 451 519 16,400 -2,340 Descending Boston Center
07:34AM 40.9703 -72.0936 59° Northeast 445 512 14,100 -2,280 Descending Boston Center
07:35AM 41.0281 -71.9669 59° Northeast 425 489 11,900 -1,860 Descending Boston Center
07:36AM 41.0942 -71.8589 51° Northeast 389 448 10,400 -1,680 Descending Boston Center
07:37AM 41.1564 -71.7619 50° Northeast 324 373 8,600 -1,800 Descending Boston Center
07:38AM 41.2122 -71.6922 43° Northeast 298 343 6,900 -1,560 Descending Boston Center
07:40AM 41.2989 -71.5864 43° Northeast 291 335 5,000 -840 Descending Boston Center
07:41AM 41.3586 -71.5136 42° Northeast 287 330 5,000  Level Boston Center
07:42AM 41.4164 -71.4408 43° Northeast 289 333 5,000  Level Boston Center
07:43AM 41.4742 -71.3650 45° Northeast 289 333 5,000  Level Boston Center
07:44AM 41.5339 -71.2947 41° Northeast 290 334 5,000 -720 Level Boston Center
07:45AM 41.5936 -71.2161 45° Northeast 279 321 3,600 -1,440 Descending Boston Center
07:46AM 41.6133 -71.1294 73° East 256 295 2,100 -900 Descending Boston Center
07:47AM 41.6186 -71.0461 85° East 230 265 1,900 -300 Descending Boston Center
07:48AM 41.6239 -70.9711 85° East 202 232 1,500 -600 Descending Boston Center
07:49AM 41.6461 -70.9261 57° Northeast 144 166 700 -720 Descending Boston Center